Time;durP1;ratioP1;P1;durP2;ratioP2;P2;SDS_P1;SDS_P2;PMS_P1;PMS_P2;Temp;Humidity;BMP_temperature;BMP_pressure;BME280_temperature;BME280_humidity;BME280_pressure;Samples;Min_cycle;Max_cycle;Signal;HPM_P1;HPM_P2
2022/11/04 00:02:07;;;;;;;10.18;6.00;;;12.30;99.90;;;;;;6190402;23;20059;-88
2022/11/04 00:04:33;;;;;;;10.20;7.30;;;12.30;99.90;;;;;;6194435;23;20421;-88
2022/11/04 00:07:01;;;;;;;13.57;8.10;;;12.30;99.90;;;;;;6194759;23;20012;-88
2022/11/04 00:09:47;;;;;;;14.18;9.70;;;12.30;99.90;;;;;;6232045;23;20060;-88
2022/11/04 00:12:24;;;;;;;12.10;9.20;;;12.30;99.90;;;;;;6208022;23;20004;-89
2022/11/04 00:14:50;;;;;;;14.60;10.93;;;12.30;99.90;;;;;;6196321;23;19997;-89
2022/11/04 00:17:26;;;;;;;18.55;12.23;;;12.30;99.90;;;;;;6191697;23;20005;-89
2022/11/04 00:33:51;;;;;;;22.02;16.27;;;12.20;99.90;;;;;;6217882;22;20023;-88
2022/11/04 00:36:26;;;;;;;19.30;16.48;;;12.20;99.90;;;;;;6191603;23;20004;-88
2022/11/04 00:38:57;;;;;;;16.55;14.68;;;12.20;99.90;;;;;;6192006;23;20012;-88
2022/11/04 00:41:25;;;;;;;19.58;14.35;;;12.10;99.90;;;;;;6191967;23;20004;-87
2022/11/04 00:44:05;;;;;;;15.32;12.30;;;12.10;99.90;;;;;;6191553;23;20000;-87
2022/11/04 00:46:34;;;;;;;14.70;10.73;;;12.10;99.90;;;;;;6218235;23;19996;-87
2022/11/04 00:49:07;;;;;;;9.45;7.93;;;12.00;99.90;;;;;;6167095;23;20083;-88
2022/11/04 00:51:33;;;;;;;8.57;6.80;;;12.00;99.90;;;;;;6217918;23;20001;-88
2022/11/04 00:53:59;;;;;;;7.45;5.70;;;11.90;99.90;;;;;;6191765;23;19996;-86
2022/11/04 00:56:27;;;;;;;6.03;4.80;;;11.90;99.90;;;;;;6192028;23;20000;-88
2022/11/04 00:59:00;;;;;;;5.50;4.22;;;11.90;99.90;;;;;;6167182;23;20020;-87
2022/11/04 01:01:28;;;;;;;6.40;3.83;;;11.90;99.90;;;;;;6217889;23;20001;-88
2022/11/04 01:03:57;;;;;;;6.47;4.22;;;11.80;99.90;;;;;;6191946;23;20304;-89
2022/11/04 01:06:26;;;;;;;6.13;3.65;;;11.80;99.90;;;;;;6191665;23;20001;-88
2022/11/04 01:09:06;;;;;;;5.28;2.72;;;11.80;99.90;;;;;;6191635;23;20005;-89
2022/11/04 01:11:34;;;;;;;6.65;3.10;;;11.70;99.90;;;;;;6191572;23;20084;-90
2022/11/04 01:14:00;;;;;;;4.70;2.60;;;11.70;99.90;;;;;;6191954;23;20047;-88
2022/11/04 01:16:28;;;;;;;4.50;2.58;;;11.70;99.90;;;;;;6191599;23;19996;-89
2022/11/04 01:19:18;;;;;;;4.10;2.45;;;11.70;99.90;;;;;;6191309;23;20092;-89
2022/11/04 01:21:45;;;;;;;5.93;2.65;;;11.70;99.90;;;;;;6216699;23;20058;-88
2022/11/04 01:24:11;;;;;;;5.68;2.50;;;11.60;99.90;;;;;;6167057;23;20001;-88
2022/11/04 01:26:41;;;;;;;3.72;2.50;;;11.60;99.90;;;;;;6191201;23;20004;-88
2022/11/04 01:29:07;;;;;;;4.93;2.70;;;11.60;99.90;;;;;;6166748;23;20009;-89
2022/11/04 01:31:33;;;;;;;4.20;2.63;;;11.60;99.90;;;;;;6166336;23;20039;-89
2022/11/04 01:33:59;;;;;;;5.43;2.53;;;11.50;99.90;;;;;;6224289;22;20019;-88
2022/11/04 01:36:31;;;;;;;4.35;2.50;;;11.50;99.90;;;;;;6218588;23;20008;-87
2022/11/04 01:39:00;;;;;;;6.15;2.63;;;11.50;99.90;;;;;;6191556;23;20009;-88
2022/11/04 01:41:28;;;;;;;6.28;2.95;;;11.40;99.90;;;;;;6191023;23;20000;-87
2022/11/04 01:44:20;;;;;;;6.45;3.22;;;11.40;99.90;;;;;;6191283;23;20009;-88
2022/11/04 01:46:54;;;;;;;8.32;5.15;;;11.40;99.90;;;;;;6191244;23;20134;-89
2022/11/04 01:49:36;;;;;;;8.48;5.68;;;11.40;99.90;;;;;;6191304;23;20098;-88
2022/11/04 01:52:08;;;;;;;11.63;7.88;;;11.40;99.90;;;;;;6191641;23;20056;-88
2022/11/04 01:54:44;;;;;;;12.65;10.05;;;11.30;99.90;;;;;;6191060;23;20449;-88
2022/11/04 01:57:16;;;;;;;12.57;10.68;;;11.30;99.90;;;;;;6191888;23;20493;-88
2022/11/04 01:59:42;;;;;;;14.95;12.13;;;11.30;99.90;;;;;;6191429;23;19997;-89
2022/11/04 02:02:10;;;;;;;15.52;13.05;;;11.30;99.90;;;;;;6191121;23;20445;-88
2022/11/04 02:04:37;;;;;;;17.98;13.40;;;11.30;99.90;;;;;;6167146;23;20008;-87
2022/11/04 02:07:05;;;;;;;19.45;14.93;;;11.30;99.90;;;;;;6167078;23;20020;-88
2022/11/04 02:09:32;;;;;;;18.25;15.00;;;11.20;99.90;;;;;;6190513;23;20004;-87
2022/11/04 02:14:45;;;;;;;16.73;14.25;;;11.30;99.90;;;;;;6217550;23;20402;-88
2022/11/04 02:17:14;;;;;;;17.50;14.15;;;11.20;99.90;;;;;;6218109;23;20004;-88
2022/11/04 02:19:58;;;;;;;18.67;14.77;;;11.20;99.90;;;;;;6191491;23;20338;-88
2022/11/04 02:22:51;;;;;;;18.45;15.20;;;11.20;99.90;;;;;;6191505;23;20488;-89
2022/11/04 02:25:42;;;;;;;16.98;13.75;;;11.20;99.90;;;;;;6191505;23;20000;-88
2022/11/04 02:28:19;;;;;;;;;;;11.20;99.90;;;;;;6192241;23;20060;-87
2022/11/04 02:31:23;;;;;;;19.10;15.02;;;11.20;99.90;;;;;;6190860;23;19954;-88
2022/11/04 02:34:10;;;;;;;22.73;16.58;;;11.20;99.90;;;;;;6168048;23;20023;-88
2022/11/04 02:36:51;;;;;;;22.35;16.83;;;11.20;99.90;;;;;;6221624;23;20012;-88
2022/11/04 02:39:17;;;;;;;;;;;11.20;99.90;;;;;;6222471;23;20015;-89
2022/11/04 02:41:55;;;;;;;24.27;16.92;;;11.20;99.90;;;;;;6222030;23;19995;-87
2022/11/04 02:44:38;;;;;;;22.05;19.08;;;11.20;99.90;;;;;;6228307;23;20004;-88
2022/11/04 02:47:23;;;;;;;24.65;18.77;;;11.20;99.90;;;;;;6212383;23;20426;-88
2022/11/04 02:50:21;;;;;;;25.55;19.23;;;11.20;99.90;;;;;;6221419;23;20023;-88
2022/11/04 02:53:10;;;;;;;24.80;18.42;;;11.20;99.90;;;;;;6168179;23;20036;-89
2022/11/04 02:55:50;;;;;;;23.60;19.13;;;11.20;99.90;;;;;;6223434;23;20008;-87
2022/11/04 02:58:34;;;;;;;22.15;18.55;;;11.30;99.90;;;;;;6250572;23;20062;-88
2022/11/04 03:01:04;;;;;;;25.60;20.00;;;11.30;99.90;;;;;;6223408;23;20004;-88
2022/11/04 03:03:39;;;;;;;24.58;19.52;;;11.30;99.90;;;;;;6249465;23;20003;-89
2022/11/04 03:06:09;;;;;;;22.92;18.45;;;11.30;99.90;;;;;;6222822;23;20000;-89
2022/11/04 03:08:42;;;;;;;25.00;19.60;;;11.30;99.90;;;;;;6222013;23;20004;-89
2022/11/04 03:11:14;;;;;;;26.75;20.25;;;11.30;99.90;;;;;;6222604;23;20000;-88
2022/11/04 03:13:46;;;;;;;23.67;19.42;;;11.30;99.90;;;;;;6222889;23;20007;-89
2022/11/04 03:16:25;;;;;;;27.80;19.67;;;11.30;99.90;;;;;;6224706;23;20003;-89
2022/11/04 03:19:00;;;;;;;25.42;18.70;;;11.30;99.90;;;;;;6224111;23;20086;-88
2022/11/04 03:21:30;;;;;;;26.50;18.08;;;11.30;99.90;;;;;;6223746;23;20083;-89
2022/11/04 03:23:56;;;;;;;22.95;18.77;;;11.30;99.90;;;;;;6223357;23;19996;-89
2022/11/04 03:26:33;;;;;;;22.80;18.75;;;11.30;99.90;;;;;;6223415;23;19996;-89
2022/11/04 03:29:21;;;;;;;25.92;16.75;;;11.30;99.90;;;;;;6222939;23;20004;-88
2022/11/04 03:32:20;;;;;;;25.17;16.45;;;11.30;99.90;;;;;;6248727;23;20000;-89
2022/11/04 03:34:46;;;;;;;20.73;16.85;;;11.20;99.90;;;;;;6228549;22;20019;-89
2022/11/04 03:37:30;;;;;;;22.33;16.17;;;11.20;99.90;;;;;;6194563;23;20020;-89
2022/11/04 03:39:56;;;;;;;24.23;17.00;;;11.20;99.90;;;;;;6194522;23;20069;-89
2022/11/04 03:42:26;;;;;;;25.90;16.05;;;11.20;99.90;;;;;;6196418;23;19997;-89
2022/11/04 03:44:55;;;;;;;20.50;16.20;;;11.20;99.90;;;;;;6221955;23;20050;-90
2022/11/04 03:47:29;;;;;;;26.15;16.98;;;11.20;99.90;;;;;;6196976;23;20015;-89
2022/11/04 03:50:25;;;;;;;22.90;15.38;;;11.20;99.90;;;;;;6198068;23;20063;-89
2022/11/04 03:52:51;;;;;;;19.15;14.52;;;11.20;99.90;;;;;;6197477;23;20000;-90
2022/11/04 03:55:20;;;;;;;22.50;14.70;;;11.20;99.90;;;;;;6215174;23;20012;-90
2022/11/04 03:57:49;;;;;;;21.38;13.70;;;11.20;99.90;;;;;;6198446;23;20162;-89
2022/11/04 04:00:20;;;;;;;20.95;13.80;;;11.20;99.90;;;;;;6203458;23;20098;-89
2022/11/04 04:02:58;;;;;;;19.48;13.38;;;11.20;99.90;;;;;;6238299;23;20007;-89
2022/11/04 04:05:36;;;;;;;18.05;12.98;;;11.30;99.90;;;;;;6217956;23;19989;-89
2022/11/04 04:08:20;;;;;;;16.15;12.55;;;11.30;99.90;;;;;;6219776;23;19988;-89
2022/11/04 04:11:04;;;;;;;15.50;10.88;;;11.30;99.90;;;;;;6220338;23;20001;-89
2022/11/04 04:13:35;;;;;;;17.23;11.48;;;11.30;99.90;;;;;;6220398;23;20039;-88
2022/11/04 04:16:12;;;;;;;17.38;11.27;;;11.30;99.90;;;;;;6220243;23;19996;-89
2022/11/04 04:18:57;;;;;;;14.38;10.85;;;11.30;99.90;;;;;;6215065;23;20494;-90
2022/11/04 04:21:32;;;;;;;14.95;10.57;;;11.30;99.90;;;;;;6209534;23;20004;-89
2022/11/04 04:29:35;;;;;;;15.80;8.75;;;11.30;99.90;;;;;;6229751;23;20067;-88
2022/11/04 04:32:05;;;;;;;14.77;9.30;;;11.30;99.90;;;;;;6228129;23;20005;-90
2022/11/04 04:34:33;;;;;;;14.95;8.27;;;11.20;99.90;;;;;;6202219;23;20085;-89
2022/11/04 04:37:18;;;;;;;11.95;7.97;;;11.20;99.90;;;;;;6203669;23;20387;-89
2022/11/04 04:45:30;;;;;;;15.15;7.95;;;11.10;99.90;;;;;;6246489;23;20016;-90
2022/11/04 04:47:56;;;;;;;12.52;8.00;;;11.10;99.90;;;;;;6219033;23;20028;-89
2022/11/04 04:50:27;;;;;;;12.27;7.70;;;11.10;99.90;;;;;;6220044;23;19995;-90
2022/11/04 04:52:55;;;;;;;14.85;7.72;;;11.00;99.90;;;;;;6218980;23;19996;-89
2022/11/04 04:55:21;;;;;;;14.32;7.53;;;11.00;99.90;;;;;;6218866;23;20013;-88
2022/11/04 04:57:47;;;;;;;12.02;7.35;;;11.00;99.90;;;;;;6217448;23;20014;-89
2022/11/04 05:00:16;;;;;;;12.52;7.53;;;11.00;99.90;;;;;;6202513;23;20415;-90
2022/11/04 05:02:45;;;;;;;14.95;7.53;;;11.00;99.90;;;;;;6199552;23;20019;-90
2022/11/04 05:05:17;;;;;;;10.15;6.63;;;11.00;99.90;;;;;;6201101;23;20003;-91
2022/11/04 05:07:45;;;;;;;14.18;7.60;;;11.00;99.90;;;;;;6198899;23;20381;-89
2022/11/04 05:10:13;;;;;;;11.48;6.90;;;11.00;99.90;;;;;;6196841;23;20000;-89
2022/11/04 05:15:27;;;;;;;10.10;6.75;;;11.00;99.90;;;;;;6222804;23;20063;-89
2022/11/04 05:17:58;;;;;;;10.73;6.40;;;11.00;99.90;;;;;;6194522;23;20019;-90
2022/11/04 05:20:24;;;;;;;10.63;6.87;;;11.00;99.90;;;;;;6194035;23;20003;-90
2022/11/04 05:22:50;;;;;;;14.52;6.82;;;11.10;99.90;;;;;;6193052;23;20055;-90
2022/11/04 05:25:16;;;;;;;9.55;6.13;;;11.10;99.90;;;;;;6192599;23;20330;-90
2022/11/04 05:27:41;;;;;;;11.10;6.88;;;11.10;99.90;;;;;;6167864;23;20439;-92
2022/11/04 05:30:08;;;;;;;12.40;6.70;;;11.00;99.90;;;;;;6167564;23;20092;-88
2022/11/04 05:32:34;;;;;;;15.00;6.60;;;11.00;99.90;;;;;;6218728;23;20043;-89
2022/11/04 05:35:01;;;;;;;10.60;6.22;;;11.00;99.90;;;;;;6215056;23;20016;-89
2022/11/04 05:37:27;;;;;;;11.60;6.20;;;11.00;99.90;;;;;;6223807;23;20123;-89
2022/11/04 05:39:53;;;;;;;14.18;6.53;;;10.90;99.90;;;;;;6239158;23;20000;-90
2022/11/04 05:42:28;;;;;;;15.57;7.47;;;10.90;99.90;;;;;;6240767;23;20031;-89
2022/11/04 05:44:54;;;;;;;9.80;6.07;;;10.90;99.90;;;;;;6249435;23;19996;-89
2022/11/04 05:47:21;;;;;;;13.13;6.05;;;10.90;99.90;;;;;;6222014;23;20008;-91
2022/11/04 05:50:10;;;;;;;10.48;6.28;;;10.90;99.90;;;;;;6222800;23;20000;-92
2022/11/04 05:52:40;;;;;;;10.90;5.70;;;10.90;99.90;;;;;;6225880;23;20103;-91
2022/11/04 05:55:06;;;;;;;9.43;5.22;;;10.90;99.90;;;;;;6250723;23;20475;-88
2022/11/04 05:57:34;;;;;;;12.90;6.07;;;10.80;99.90;;;;;;6222615;23;20066;-90
2022/11/04 06:00:05;;;;;;;13.93;5.60;;;10.90;99.90;;;;;;6196886;23;20011;-90
2022/11/04 06:02:40;;;;;;;13.40;4.88;;;10.90;99.90;;;;;;6222960;23;20000;-90
2022/11/04 06:05:22;;;;;;;;;;;;;;;;;;;;;
2022/11/04 06:07:48;;;;;;;11.38;4.55;;;10.80;99.90;;;;;;6225943;23;20087;-91
2022/11/04 06:10:19;;;;;;;8.45;4.30;;;10.90;99.90;;;;;;6224229;23;19997;-92
2022/11/04 06:12:49;;;;;;;9.88;4.28;;;10.80;99.90;;;;;;6197610;23;20027;-91
2022/11/04 06:15:25;;;;;;;;;;;;;;;;;;;;;
2022/11/04 06:17:53;;;;;;;9.68;3.85;;;10.80;99.90;;;;;;6248998;23;20087;-91
2022/11/04 06:20:21;;;;;;;8.45;4.47;;;10.80;99.90;;;;;;6222814;23;20003;-90
2022/11/04 06:22:50;;;;;;;7.10;3.90;;;10.80;99.90;;;;;;6222186;23;20000;-90
2022/11/04 06:25:23;;;;;;;11.07;4.00;;;10.80;99.90;;;;;;6222044;23;20004;-90
2022/11/04 06:27:48;;;;;;;11.77;4.30;;;10.70;99.90;;;;;;6222209;23;20004;-90
2022/11/04 06:30:27;;;;;;;9.23;4.18;;;10.70;99.90;;;;;;6226993;23;20015;-91
2022/11/04 06:32:53;;;;;;;9.30;3.80;;;10.70;99.90;;;;;;6201766;23;20008;-90
2022/11/04 06:35:18;;;;;;;5.47;3.60;;;10.70;99.90;;;;;;6221623;23;20016;-90
2022/11/04 06:37:46;;;;;;;9.73;4.32;;;10.70;99.90;;;;;;6222002;23;20185;-91
2022/11/04 06:40:15;;;;;;;9.40;4.00;;;10.70;99.90;;;;;;6223084;23;20456;-90
2022/11/04 06:42:49;;;;;;;10.60;4.32;;;10.80;99.90;;;;;;6250536;23;20000;-89
2022/11/04 06:45:17;;;;;;;8.25;4.75;;;10.70;99.90;;;;;;6206195;23;20047;-89
2022/11/04 06:47:52;;;;;;;9.45;4.00;;;10.70;99.90;;;;;;6221027;23;20030;-89
2022/11/04 06:50:18;;;;;;;10.43;4.20;;;10.70;99.90;;;;;;6196855;23;20008;-90
2022/11/04 06:52:46;;;;;;;13.40;4.80;;;10.80;99.90;;;;;;6222636;23;20000;-89
2022/11/04 06:55:12;;;;;;;9.93;4.65;;;10.80;99.90;;;;;;6223413;23;20057;-89
2022/11/04 06:57:43;;;;;;;10.15;4.13;;;10.70;99.90;;;;;;6225918;23;20046;-89
2022/11/04 07:00:26;;;;;;;9.55;4.40;;;10.80;99.90;;;;;;6224765;23;20084;-89
2022/11/04 07:02:56;;;;;;;10.20;4.70;;;10.70;99.90;;;;;;6222750;23;20004;-90
2022/11/04 07:05:24;;;;;;;15.95;5.05;;;10.70;99.90;;;;;;6222546;23;20054;-90
2022/11/04 07:08:00;;;;;;;;;;;;;;;;;;;;;
2022/11/04 07:10:44;;;;;;;;;;;;;;;;;;;;;
2022/11/04 07:13:16;;;;;;;9.82;4.85;;;10.70;99.90;;;;;;6224294;23;20095;-91
2022/11/04 07:15:46;;;;;;;12.07;4.95;;;10.80;99.90;;;;;;6248390;23;20023;-91
2022/11/04 07:18:15;;;;;;;7.88;4.30;;;10.80;99.90;;;;;;6221595;23;20015;-91
2022/11/04 07:20:47;;;;;;;8.30;4.35;;;10.80;99.90;;;;;;6222273;23;19996;-90
2022/11/04 07:23:15;;;;;;;12.40;4.85;;;10.70;99.90;;;;;;6222772;23;20410;-90
2022/11/04 07:25:57;;;;;;;;;;;;;;;;;;;;;
2022/11/04 07:28:44;;;;;;;;;;;;;;;;;;;;;
2022/11/04 07:31:21;;;;;;;11.05;4.60;;;10.70;99.90;;;;;;6249503;23;20083;-93
2022/11/04 07:33:58;;;;;;;;;;;;;;;;;;;;;
2022/11/04 07:36:33;;;;;;;10.93;4.45;;;10.70;99.90;;;;;;6220217;23;20029;-92
2022/11/04 07:39:05;;;;;;;9.73;4.47;;;10.70;99.90;;;;;;6143907;23;20044;-91
2022/11/04 07:41:36;;;;;;;11.07;4.68;;;10.70;99.90;;;;;;6192289;23;20005;-91
2022/11/04 07:44:14;;;;;;;;;;;;;;;;;;;;;
2022/11/04 07:46:48;;;;;;;11.70;4.40;;;10.60;99.90;;;;;;6195446;23;20083;-91
2022/11/04 07:49:17;;;;;;;19.63;5.60;;;10.60;99.90;;;;;;6192189;23;20016;-91
2022/11/04 07:51:47;;;;;;;38.10;5.80;;;10.60;99.90;;;;;;6192931;23;20092;-91
2022/11/04 07:54:15;;;;;;;12.90;5.05;;;10.60;99.90;;;;;;6192387;23;20007;-91
2022/11/04 07:56:48;;;;;;;12.27;4.78;;;10.60;99.90;;;;;;6192265;23;20415;-88
2022/11/04 07:59:14;;;;;;;11.13;4.78;;;10.60;99.90;;;;;;6191968;23;20009;-88
2022/11/04 08:01:48;;;;;;;11.25;5.15;;;10.60;99.90;;;;;;6192117;23;20005;-91
2022/11/04 08:04:20;;;;;;;11.32;5.18;;;10.60;99.90;;;;;;6194484;23;19997;-96
2022/11/04 08:06:58;;;;;;;;;;;;;;;;;;;;;
2022/11/04 08:13:13;;;;;;;17.25;5.85;;;10.70;99.90;;;;;;6219331;23;20016;-94
2022/11/04 08:15:51;;;;;;;;;;;;;;;;;;;;;
2022/11/04 08:18:17;;;;;;;12.65;4.82;;;10.70;99.90;;;;;;6192970;23;20502;-88
2022/11/04 08:20:58;;;;;;;;;;;;;;;;;;;;;
2022/11/04 08:23:37;;;;;;;13.02;5.22;;;10.70;99.90;;;;;;6216603;23;20491;-93
2022/11/04 08:26:25;;;;;;;11.40;5.05;;;10.70;99.90;;;;;;6169832;23;20005;-93
2022/11/04 08:28:51;;;;;;;15.32;5.78;;;10.70;99.90;;;;;;6194472;23;20052;-94
2022/11/04 08:31:36;;;;;;;11.30;5.85;;;10.80;99.90;;;;;;6227972;23;20004;-93
2022/11/04 08:34:07;;;;;;;12.60;6.15;;;10.80;99.90;;;;;;6196682;23;20088;-95
2022/11/04 08:36:47;;;;;;;;;;;;;;;;;;;;;
2022/11/04 08:39:16;;;;;;;14.27;5.97;;;10.80;99.90;;;;;;6218733;23;20092;-93
2022/11/04 08:41:44;;;;;;;13.00;5.60;;;10.80;99.90;;;;;;6218532;23;20024;-93
2022/11/04 08:44:13;;;;;;;15.07;6.00;;;10.90;99.90;;;;;;6217214;23;20000;-93
2022/11/04 08:46:47;;;;;;;14.52;5.90;;;10.90;99.90;;;;;;6218922;23;20000;-89
2022/11/04 08:49:15;;;;;;;14.80;5.50;;;10.90;99.90;;;;;;6217920;23;20005;-92
2022/11/04 08:51:47;;;;;;;14.38;5.90;;;10.90;99.90;;;;;;6218047;23;20007;-91
2022/11/04 08:54:22;;;;;;;24.30;5.70;;;10.90;99.90;;;;;;6223592;23;20028;-93
2022/11/04 08:56:55;;;;;;;15.40;5.53;;;10.90;99.90;;;;;;6203863;23;19992;-90
2022/11/04 08:59:21;;;;;;;15.88;6.38;;;10.90;99.90;;;;;;6241124;23;20035;-90
2022/11/04 09:01:53;;;;;;;15.77;6.28;;;11.00;99.90;;;;;;6235408;23;20004;-92
2022/11/04 09:04:21;;;;;;;12.63;5.55;;;11.00;99.90;;;;;;6217076;23;20088;-90
2022/11/04 09:06:51;;;;;;;10.77;5.50;;;11.00;99.90;;;;;;6217767;23;20000;-89
2022/11/04 09:09:33;;;;;;;12.23;5.75;;;11.10;99.90;;;;;;6217381;23;20312;-87
2022/11/04 09:12:17;;;;;;;18.45;5.75;;;11.10;99.90;;;;;;6193370;23;20427;-89
2022/11/04 09:14:42;;;;;;;15.93;5.60;;;11.10;99.90;;;;;;6193963;23;20008;-90
2022/11/04 09:17:08;;;;;;;12.63;5.63;;;11.10;99.90;;;;;;6216313;23;20011;-90
2022/11/04 09:19:42;;;;;;;14.07;5.68;;;11.10;99.90;;;;;;6216919;23;20024;-89
2022/11/04 09:22:08;;;;;;;13.18;6.05;;;11.10;99.90;;;;;;6217633;23;19997;-94
2022/11/04 09:24:41;;;;;;;12.15;5.78;;;11.10;99.90;;;;;;6217985;23;20008;-93
2022/11/04 09:27:07;;;;;;;13.43;5.35;;;11.20;99.90;;;;;;6193768;23;20005;-93
2022/11/04 09:29:40;;;;;;;13.23;5.53;;;11.20;99.90;;;;;;6217747;23;20023;-94
2022/11/04 09:32:17;;;;;;;;;;;;;;;;;;;;;
2022/11/04 09:34:43;;;;;;;17.85;5.38;;;11.20;99.90;;;;;;6226407;22;20369;-94
2022/11/04 09:37:12;;;;;;;12.15;5.00;;;11.30;99.90;;;;;;6192900;23;20016;-91
2022/11/04 09:39:40;;;;;;;12.48;5.55;;;11.30;99.90;;;;;;6193247;23;20005;-94
2022/11/04 09:42:32;;;;;;;11.45;5.75;;;11.30;99.90;;;;;;6167374;23;20009;-93
2022/11/04 09:45:08;;;;;;;12.10;5.55;;;11.40;99.90;;;;;;6192809;23;19997;-93
2022/11/04 09:47:42;;;;;;;11.15;5.05;;;11.40;99.90;;;;;;6192657;23;20051;-94
2022/11/04 09:50:40;;;;;;;13.40;4.90;;;11.40;99.90;;;;;;6169497;23;20039;-93
2022/11/04 09:53:47;;;;;;;10.85;5.18;;;11.40;99.90;;;;;;6186978;23;20051;-91
2022/11/04 09:56:20;;;;;;;15.10;5.55;;;11.50;99.90;;;;;;6194012;23;20091;-93
2022/11/04 09:58:46;;;;;;;13.85;5.85;;;11.50;99.90;;;;;;6193134;23;20465;-90
2022/11/04 10:01:41;;;;;;;12.75;5.40;;;11.50;99.90;;;;;;6191655;23;20430;-90
2022/11/04 10:04:24;;;;;;;12.57;5.75;;;11.60;99.90;;;;;;6182138;23;20032;-92
2022/11/04 10:07:19;;;;;;;15.65;5.53;;;11.60;99.90;;;;;;6220128;23;19996;-94
2022/11/04 10:10:22;;;;;;;;;;;;;;;;;;;;;
2022/11/04 10:13:25;;;;;;;14.32;6.05;;;11.60;99.90;;;;;;6219543;23;20053;-95
2022/11/04 10:16:20;;;;;;;11.93;6.10;;;11.60;99.90;;;;;;6191215;23;20001;-92
2022/11/04 10:19:01;;;;;;;17.63;5.97;;;11.70;99.90;;;;;;6193354;23;20068;-93
2022/11/04 10:21:48;;;;;;;12.40;6.63;;;11.70;99.90;;;;;;6193096;23;20058;-95
2022/11/04 10:24:40;;;;;;;13.90;6.50;;;11.70;99.90;;;;;;6192768;23;20016;-88
2022/11/04 10:27:15;;;;;;;17.80;7.13;;;11.70;99.90;;;;;;6192884;23;20004;-93
2022/11/04 10:30:03;;;;;;;15.38;7.03;;;11.80;99.90;;;;;;6191997;23;20000;-93
2022/11/04 10:32:53;;;;;;;19.25;8.02;;;11.80;99.90;;;;;;6192185;23;20005;-93
2022/11/04 10:35:38;;;;;;;14.75;6.80;;;11.90;99.90;;;;;;6203866;23;20067;-93
2022/11/04 10:38:36;;;;;;;15.20;7.78;;;11.90;99.90;;;;;;6217171;23;20049;-93
2022/11/04 10:41:31;;;;;;;13.20;8.38;;;11.90;99.90;;;;;;6217170;23;20008;-92
2022/11/04 10:44:25;;;;;;;19.25;9.45;;;12.00;99.90;;;;;;6237268;23;20078;-89
2022/11/04 10:47:57;;;;;;;14.73;7.97;;;12.00;99.90;;;;;;6217002;23;20003;-91
2022/11/04 10:50:57;;;;;;;20.80;9.88;;;12.00;99.90;;;;;;6217619;23;20319;-89
2022/11/04 10:53:28;;;;;;;16.02;9.43;;;12.10;99.90;;;;;;6218185;23;19996;-90
2022/11/04 10:55:56;;;;;;;19.70;10.20;;;12.10;99.90;;;;;;6217256;23;19997;-91
2022/11/04 10:58:32;;;;;;;15.43;8.43;;;12.20;99.90;;;;;;6217462;23;20008;-93
2022/11/04 11:00:59;;;;;;;18.73;10.35;;;12.20;99.90;;;;;;6219087;23;20453;-92
2022/11/04 11:03:31;;;;;;;15.88;10.05;;;12.20;99.90;;;;;;6230376;23;20040;-90
2022/11/04 11:06:16;;;;;;;19.85;11.38;;;12.20;99.90;;;;;;6242272;23;20008;-91
2022/11/04 11:08:43;;;;;;;18.92;12.02;;;12.30;99.90;;;;;;6241246;23;19996;-92
2022/11/04 11:11:14;;;;;;;19.15;11.40;;;12.30;99.90;;;;;;6215908;23;20005;-91
2022/11/04 11:13:48;;;;;;;23.83;11.80;;;12.40;99.90;;;;;;6239611;23;20207;-92
2022/11/04 11:16:26;;;;;;;19.48;11.73;;;12.40;99.90;;;;;;6241380;23;19991;-90
2022/11/04 11:19:19;;;;;;;20.80;12.70;;;12.40;99.90;;;;;;6236014;23;20009;-93
2022/11/04 11:22:30;;;;;;;16.23;10.60;;;12.40;99.90;;;;;;6224304;23;20054;-92
2022/11/04 11:25:24;;;;;;;18.48;12.07;;;12.50;99.90;;;;;;6200917;23;20008;-91
2022/11/04 11:27:56;;;;;;;19.95;11.10;;;12.50;99.90;;;;;;6230003;23;20000;-90
2022/11/04 11:30:35;;;;;;;18.17;11.05;;;12.50;99.90;;;;;;6236045;23;20345;-90
2022/11/04 11:33:26;;;;;;;18.40;11.30;;;12.50;99.90;;;;;;6235103;23;20005;-92
2022/11/04 11:36:15;;;;;;;16.38;10.70;;;12.60;99.90;;;;;;6231323;23;20453;-92
2022/11/04 11:39:10;;;;;;;15.65;9.98;;;12.60;99.90;;;;;;6193419;23;20029;-89
2022/11/04 11:41:49;;;;;;;19.15;10.73;;;12.60;99.90;;;;;;6172140;23;20369;-88
2022/11/04 11:44:27;;;;;;;19.30;11.07;;;12.60;99.90;;;;;;6191343;23;20031;-90
2022/11/04 11:47:07;;;;;;;16.30;9.68;;;12.70;99.90;;;;;;6191908;23;20005;-92
2022/11/04 11:49:35;;;;;;;16.75;10.88;;;12.70;99.90;;;;;;6217012;23;20012;-91
2022/11/04 11:55:31;;;;;;;14.05;10.27;;;12.80;99.90;;;;;;6220334;23;20004;-93
2022/11/04 11:58:15;;;;;;;17.40;10.35;;;12.80;99.90;;;;;;6166746;23;20037;-92
2022/11/04 12:01:45;;;;;;;17.30;10.40;;;12.90;99.90;;;;;;6190790;23;20008;-92
2022/11/04 12:04:12;;;;;;;16.92;10.40;;;12.90;99.90;;;;;;6219262;23;20051;-94
2022/11/04 12:07:18;;;;;;;17.08;11.13;;;12.90;99.90;;;;;;6194045;23;20083;-95
2022/11/04 12:10:08;;;;;;;14.98;10.10;;;13.00;99.90;;;;;;6178541;23;20011;-94
2022/11/04 12:13:03;;;;;;;16.60;10.77;;;13.00;99.90;;;;;;6192749;23;20011;-86
2022/11/04 12:16:10;;;;;;;19.42;11.25;;;13.10;99.90;;;;;;6192714;23;20011;-88
2022/11/04 12:18:47;;;;;;;17.02;11.68;;;13.20;99.90;;;;;;6192878;23;20435;-88
2022/11/04 12:21:18;;;;;;;16.83;11.73;;;13.30;99.90;;;;;;6192468;23;20000;-87
2022/11/04 12:24:09;;;;;;;18.13;11.60;;;13.30;99.90;;;;;;6193006;23;20008;-93
2022/11/04 12:26:46;;;;;;;16.20;12.70;;;13.30;99.90;;;;;;6192925;23;20036;-93
2022/11/04 12:29:35;;;;;;;16.27;12.68;;;13.30;99.90;;;;;;6192851;23;20087;-94
2022/11/04 12:32:25;;;;;;;17.42;12.65;;;13.40;99.90;;;;;;6193618;23;20084;-94
2022/11/04 12:35:08;;;;;;;16.33;12.32;;;13.50;99.90;;;;;;6203430;23;20046;-93
2022/11/04 12:37:52;;;;;;;21.52;13.50;;;13.40;99.90;;;;;;6223626;23;20008;-91
2022/11/04 12:40:32;;;;;;;18.27;13.15;;;13.50;99.90;;;;;;6223405;23;20006;-92
2022/11/04 12:43:21;;;;;;;19.58;12.68;;;13.50;99.90;;;;;;6223879;23;20000;-94
2022/11/04 12:46:17;;;;;;;16.00;11.75;;;13.50;99.90;;;;;;6223523;23;20291;-93
2022/11/04 12:48:58;;;;;;;18.25;12.75;;;13.60;99.90;;;;;;6223983;23;20012;-92
2022/11/04 12:51:56;;;;;;;18.95;12.73;;;13.60;99.90;;;;;;6223308;23;20008;-94
2022/11/04 12:54:59;;;;;;;16.45;13.38;;;13.60;99.90;;;;;;6223293;23;20441;-93
2022/11/04 12:57:48;;;;;;;16.13;12.52;;;13.60;99.90;;;;;;6223784;23;20022;-92
2022/11/04 13:00:30;;;;;;;;;;;;;;;;;;;;;
2022/11/04 13:03:28;;;;;;;17.10;12.68;;;13.70;99.90;;;;;;6250622;23;20083;-94
2022/11/04 13:06:08;;;;;;;15.05;11.65;;;13.70;99.90;;;;;;6250502;23;20429;-93
2022/11/04 13:08:55;;;;;;;16.00;12.05;;;13.70;99.90;;;;;;6224115;23;20000;-94
2022/11/04 13:11:24;;;;;;;16.48;11.93;;;13.70;99.90;;;;;;6250978;23;20314;-94
2022/11/04 13:14:15;;;;;;;17.38;11.70;;;13.80;99.90;;;;;;6224456;23;20000;-94
2022/11/04 13:16:43;;;;;;;18.47;12.60;;;13.80;99.90;;;;;;6223364;23;20007;-93
2022/11/04 13:22:39;;;;;;;14.43;10.90;;;13.80;99.90;;;;;;6234084;23;20050;-89
2022/11/04 13:25:42;;;;;;;16.75;11.82;;;13.80;99.90;;;;;;6224636;23;20036;-94
2022/11/04 13:28:21;;;;;;;16.20;11.95;;;13.90;99.90;;;;;;6224102;23;20090;-94
2022/11/04 13:34:02;;;;;;;16.17;12.23;;;13.90;99.90;;;;;;6246517;23;20004;-95
2022/11/04 13:36:57;;;;;;;21.23;13.45;;;13.90;99.90;;;;;;6203163;23;20095;-95
2022/11/04 15:09:03;;;;;;;7.50;3.15;;;14.00;99.90;;;;;;6218652;23;20442;-91
2022/11/04 15:14:22;;;;;;;4.93;1.73;;;13.90;99.90;;;;;;6218920;23;20016;-91
2022/11/04 15:16:51;;;;;;;1.90;1.25;;;13.90;99.90;;;;;;6218267;23;19996;-91
2022/11/04 15:19:27;;;;;;;2.92;1.15;;;13.90;99.90;;;;;;6191837;23;20008;-91
2022/11/04 15:21:55;;;;;;;2.28;1.30;;;13.90;99.90;;;;;;6218289;23;20008;-90
2022/11/04 15:24:24;;;;;;;2.38;1.20;;;13.80;99.90;;;;;;6192172;23;20005;-91
2022/11/04 15:26:58;;;;;;;2.03;0.88;;;13.80;99.90;;;;;;6191808;23;20039;-90
2022/11/04 15:29:24;;;;;;;2.72;1.00;;;13.80;99.90;;;;;;6192196;23;20083;-92
2022/11/04 15:32:12;;;;;;;;;;;;;;;;;;;;;
2022/11/04 15:34:48;;;;;;;1.95;0.80;;;13.70;99.90;;;;;;6219190;23;20487;-91
2022/11/04 15:37:18;;;;;;;5.95;0.88;;;13.70;99.90;;;;;;6217864;23;20418;-90
2022/11/04 15:40:00;;;;;;;;;;;;;;;;;;;;;
2022/11/04 15:42:44;;;;;;;1.88;0.77;;;13.60;99.90;;;;;;6218318;23;20112;-92
2022/11/04 15:45:16;;;;;;;1.85;0.90;;;13.60;99.90;;;;;;6191756;23;20005;-91
2022/11/04 15:47:46;;;;;;;3.38;1.35;;;13.50;99.90;;;;;;6192243;23;20004;-91
2022/11/04 15:50:33;;;;;;;3.60;0.80;;;13.50;99.90;;;;;;6191478;23;20083;-92
2022/11/04 15:53:22;;;;;;;2.55;0.80;;;13.50;99.90;;;;;;6191806;23;20008;-93
2022/11/04 15:55:50;;;;;;;1.85;0.80;;;13.50;99.90;;;;;;6216741;23;20007;-92
2022/11/04 15:58:26;;;;;;;2.67;1.00;;;13.50;99.90;;;;;;6217638;23;20415;-92
2022/11/04 16:00:56;;;;;;;2.30;0.93;;;13.50;99.90;;;;;;6191961;23;20004;-92